Time;durP1;ratioP1;P1;durP2;ratioP2;P2;SDS_P1;SDS_P2;PMS_P1;PMS_P2;Temp;Humidity;BMP_temperature;BMP_pressure;BME280_temperature;BME280_humidity;BME280_pressure;Samples;Min_cycle;Max_cycle;Signal;HPM_P1;HPM_P2
2022/07/24 00:00:41;;;;;;;13.40;10.03;;;20.90;99.90;;;;;;4988527;28;20055;-79
2022/07/24 00:03:07;;;;;;;15.93;11.93;;;20.80;99.90;;;;;;4972184;28;20037;-79
2022/07/24 00:05:33;;;;;;;15.10;11.97;;;20.80;99.90;;;;;;4988464;28;20031;-78
2022/07/24 00:07:59;;;;;;;13.93;10.67;;;20.70;99.90;;;;;;4972495;28;20037;-79
2022/07/24 00:10:25;;;;;;;14.77;11.27;;;20.70;99.90;;;;;;4988546;28;20027;-78
2022/07/24 00:12:50;;;;;;;15.50;12.10;;;20.70;99.90;;;;;;4919198;29;20031;-79
2022/07/24 00:15:16;;;;;;;15.30;10.00;;;20.70;99.90;;;;;;4951131;29;20020;-78
2022/07/24 00:17:42;;;;;;;14.47;10.83;;;20.60;99.90;;;;;;4937695;29;20019;-80
2022/07/24 00:20:08;;;;;;;13.63;10.63;;;20.60;99.90;;;;;;4971103;29;20023;-80
2022/07/24 00:22:34;;;;;;;13.68;10.43;;;20.60;99.90;;;;;;4938041;29;20038;-81
2022/07/24 00:25:00;;;;;;;12.57;10.40;;;20.60;99.90;;;;;;4970590;29;20031;-81
2022/07/24 00:27:27;;;;;;;13.60;10.15;;;20.50;99.90;;;;;;4985412;28;20030;-80
2022/07/24 00:29:52;;;;;;;12.52;10.70;;;20.50;99.90;;;;;;4990122;28;20034;-80
2022/07/24 00:32:18;;;;;;;11.97;10.23;;;20.50;99.90;;;;;;4973236;28;20061;-80
2022/07/24 00:34:44;;;;;;;11.33;10.13;;;20.50;99.90;;;;;;4973420;28;20023;-80
2022/07/24 00:37:10;;;;;;;12.27;10.00;;;20.50;99.90;;;;;;4988176;28;20026;-80
2022/07/24 00:39:35;;;;;;;11.83;10.23;;;20.40;99.90;;;;;;4989835;28;20065;-81
2022/07/24 00:42:01;;;;;;;14.10;10.63;;;20.40;99.90;;;;;;4985452;28;20046;-79
2022/07/24 00:44:27;;;;;;;13.27;10.37;;;20.40;99.90;;;;;;4954341;28;20585;-78
2022/07/24 00:46:53;;;;;;;13.50;11.10;;;20.30;99.90;;;;;;4953643;23;20038;-74
2022/07/24 00:49:19;;;;;;;13.47;10.27;;;20.40;99.90;;;;;;4985308;28;20225;-74
2022/07/24 00:51:47;;;;;;;14.95;11.80;;;20.30;99.90;;;;;;4989598;28;20022;-74
2022/07/24 00:54:14;;;;;;;16.90;12.27;;;20.30;99.90;;;;;;4998019;28;20022;-74
2022/07/24 00:56:44;;;;;;;15.75;12.45;;;20.30;99.90;;;;;;5003317;28;20029;-74
2022/07/24 00:59:10;;;;;;;15.80;11.35;;;20.30;99.90;;;;;;4967998;28;20486;-74
2022/07/24 01:01:36;;;;;;;16.02;11.45;;;20.30;99.90;;;;;;4967773;28;20035;-74
2022/07/24 01:04:01;;;;;;;14.17;10.83;;;20.30;99.90;;;;;;4983657;28;20364;-74
2022/07/24 01:06:27;;;;;;;16.87;12.03;;;20.30;99.90;;;;;;4983877;28;20279;-74
2022/07/24 01:08:53;;;;;;;14.50;10.83;;;20.30;99.90;;;;;;4983647;28;20033;-74
2022/07/24 01:11:19;;;;;;;12.30;10.87;;;20.30;99.90;;;;;;4975327;28;20030;-74
2022/07/24 01:13:46;;;;;;;14.90;11.60;;;20.20;99.90;;;;;;4955676;29;20026;-74
2022/07/24 01:16:12;;;;;;;13.80;10.82;;;20.20;99.90;;;;;;4964193;29;20035;-74
2022/07/24 01:18:38;;;;;;;16.37;10.57;;;20.20;99.90;;;;;;4965236;28;20266;-74
2022/07/24 01:21:04;;;;;;;15.80;10.63;;;20.20;99.90;;;;;;4972114;28;20030;-74
2022/07/24 01:23:30;;;;;;;16.77;11.80;;;20.20;99.90;;;;;;4967183;28;20254;-74
2022/07/24 01:25:56;;;;;;;13.67;12.17;;;20.10;99.90;;;;;;4983194;28;20037;-74
2022/07/24 01:28:21;;;;;;;12.90;11.53;;;20.10;99.90;;;;;;4983298;28;20306;-74
2022/07/24 01:30:47;;;;;;;16.60;11.57;;;20.00;99.90;;;;;;4979257;28;20344;-74
2022/07/24 01:33:13;;;;;;;13.47;10.97;;;20.00;99.90;;;;;;4978972;28;20206;-74
2022/07/24 01:35:40;;;;;;;15.85;11.50;;;20.00;99.90;;;;;;4983295;28;20030;-74
2022/07/24 01:38:06;;;;;;;13.77;11.25;;;20.00;99.90;;;;;;4967360;28;20408;-74
2022/07/24 01:40:32;;;;;;;16.47;11.80;;;19.90;99.90;;;;;;4980996;28;20027;-74
2022/07/24 01:42:58;;;;;;;15.20;12.37;;;19.80;99.90;;;;;;4973733;28;20026;-74
2022/07/24 01:45:23;;;;;;;15.17;11.83;;;19.70;99.90;;;;;;4963734;29;20027;-74
2022/07/24 01:47:49;;;;;;;15.20;11.80;;;19.70;99.90;;;;;;4969995;28;20034;-74
2022/07/24 01:50:15;;;;;;;17.23;12.63;;;19.60;99.90;;;;;;4983138;28;20019;-74
2022/07/24 01:52:41;;;;;;;15.87;12.87;;;19.50;99.90;;;;;;4982961;28;20039;-74
2022/07/24 01:55:07;;;;;;;13.97;11.67;;;19.50;99.90;;;;;;4982931;28;20022;-74
2022/07/24 01:57:34;;;;;;;17.75;13.38;;;;;;;;;;4983401;28;20022;-74
2022/07/24 02:00:02;;;;;;;18.35;13.13;;;;;;;;;;4982959;28;20381;-74
2022/07/24 02:02:31;;;;;;;18.10;12.90;;;;;;;;;;4983911;28;20030;-74
2022/07/24 02:04:58;;;;;;;15.95;11.68;;;;;;;;;;4983618;28;20234;-74
2022/07/24 02:07:25;;;;;;;13.52;11.40;;;;;;;;;;4983756;28;20031;-74
2022/07/24 02:09:53;;;;;;;15.35;11.77;;;;;;;;;;4983560;28;20033;-74
2022/07/24 02:12:20;;;;;;;17.15;11.95;;;;;;;;;;4983118;28;20018;-74
2022/07/24 02:14:46;;;;;;;16.10;12.43;;;;;;;;;;4983408;28;20233;-74
2022/07/24 02:17:12;;;;;;;15.27;12.27;;;;;;;;;;4982770;28;20053;-74
2022/07/24 02:19:38;;;;;;;15.93;12.32;;;;;;;;;;4983707;28;20038;-74
2022/07/24 02:22:05;;;;;;;15.77;12.13;;;;;;;;;;4982611;28;20325;-74
2022/07/24 02:24:31;;;;;;;13.88;11.68;;;;;;;;;;4983199;28;20073;-74
2022/07/24 02:26:56;;;;;;;15.00;11.27;;;18.70;99.90;;;;;;4983490;28;20018;-74
2022/07/24 02:29:22;;;;;;;17.17;12.27;;;19.40;99.90;;;;;;4982612;28;20327;-74
2022/07/24 02:31:48;;;;;;;15.40;12.20;;;19.20;99.90;;;;;;4983653;28;20026;-73
2022/07/24 02:34:13;;;;;;;15.50;12.40;;;19.20;99.90;;;;;;4982301;28;20023;-73
2022/07/24 02:36:39;;;;;;;16.27;11.87;;;19.10;99.90;;;;;;4983546;28;20023;-74
2022/07/24 02:39:05;;;;;;;13.30;11.83;;;19.00;99.90;;;;;;4982351;28;20019;-75
2022/07/24 02:41:31;;;;;;;14.03;11.70;;;19.00;99.90;;;;;;4982121;28;20352;-74
2022/07/24 02:43:56;;;;;;;15.53;12.53;;;19.00;99.90;;;;;;4981325;28;20411;-72
2022/07/24 02:46:22;;;;;;;17.13;12.03;;;19.00;99.90;;;;;;4970609;28;20225;-73
2022/07/24 02:48:48;;;;;;;17.20;12.27;;;19.00;99.90;;;;;;4975274;28;20271;-74
2022/07/24 02:51:14;;;;;;;15.40;10.07;;;19.00;99.90;;;;;;4983450;28;20233;-73
2022/07/24 02:53:40;;;;;;;17.55;11.35;;;19.00;99.90;;;;;;4982061;28;20034;-73
2022/07/24 02:56:06;;;;;;;15.37;12.00;;;19.00;99.90;;;;;;4983369;28;20031;-73
2022/07/24 02:58:31;;;;;;;14.18;11.25;;;18.90;99.90;;;;;;4966507;28;20019;-73
2022/07/24 03:00:57;;;;;;;16.07;12.60;;;19.00;99.90;;;;;;4982355;28;20034;-73
2022/07/24 03:03:23;;;;;;;14.10;12.20;;;18.90;99.90;;;;;;4982845;28;20081;-73
2022/07/24 03:05:49;;;;;;;16.20;11.60;;;19.00;99.90;;;;;;4982304;28;20030;-74
2022/07/24 03:08:14;;;;;;;14.30;11.20;;;19.00;99.90;;;;;;4975872;28;20022;-74
2022/07/24 03:10:40;;;;;;;15.90;12.67;;;19.00;99.90;;;;;;4982868;28;20233;-73
2022/07/24 03:13:06;;;;;;;15.13;11.77;;;19.00;99.90;;;;;;4981107;28;20376;-74
2022/07/24 03:15:32;;;;;;;14.77;11.77;;;19.00;99.90;;;;;;4974525;28;20027;-74
2022/07/24 03:17:57;;;;;;;15.80;11.93;;;19.00;99.90;;;;;;4982443;28;20322;-74
2022/07/24 03:20:26;;;;;;;14.53;12.03;;;19.00;99.90;;;;;;4966479;29;20027;-73
2022/07/24 03:22:52;;;;;;;15.85;12.00;;;19.00;99.90;;;;;;4992486;28;20207;-73
2022/07/24 03:25:18;;;;;;;17.80;11.27;;;19.00;99.90;;;;;;4969693;28;20027;-72
2022/07/24 03:27:45;;;;;;;15.60;11.15;;;19.00;99.90;;;;;;4950347;28;20027;-74
2022/07/24 03:30:11;;;;;;;;;;;19.00;99.90;;;;;;4950543;29;20334;-73
2022/07/24 03:32:36;;;;;;;17.45;12.90;;;19.00;99.90;;;;;;4965933;29;19945;-73
2022/07/24 03:35:03;;;;;;;14.10;11.80;;;18.90;99.90;;;;;;4965859;28;20117;-73
2022/07/24 03:37:29;;;;;;;14.00;12.00;;;18.90;99.90;;;;;;4950162;29;20023;-73
2022/07/24 03:39:55;;;;;;;15.73;11.83;;;18.80;99.90;;;;;;4984827;28;20031;-73
2022/07/24 03:42:20;;;;;;;16.30;11.93;;;18.80;99.90;;;;;;4984530;28;20310;-74
2022/07/24 03:44:46;;;;;;;16.10;12.10;;;18.80;99.90;;;;;;4985039;28;20042;-73
2022/07/24 03:47:12;;;;;;;16.20;12.43;;;18.80;99.90;;;;;;4984620;28;20034;-73
2022/07/24 03:49:38;;;;;;;15.37;12.20;;;18.80;99.90;;;;;;4982469;28;20098;-73
2022/07/24 03:52:04;;;;;;;17.37;13.10;;;18.70;99.90;;;;;;4965833;29;20341;-73
2022/07/24 03:54:30;;;;;;;14.73;12.10;;;18.70;99.90;;;;;;4973878;28;20077;-73
2022/07/24 03:56:55;;;;;;;15.20;12.40;;;18.70;99.90;;;;;;4960875;28;20031;-73
2022/07/24 03:59:21;;;;;;;16.13;12.63;;;18.70;99.90;;;;;;4986111;28;20048;-73
2022/07/24 04:01:47;;;;;;;18.17;12.83;;;18.60;99.90;;;;;;4982186;28;20038;-73
2022/07/24 04:04:13;;;;;;;20.83;13.17;;;18.60;99.90;;;;;;4979807;28;20033;-73
2022/07/24 04:06:40;;;;;;;16.30;13.47;;;18.60;99.90;;;;;;4966277;28;20234;-73
2022/07/24 04:09:06;;;;;;;19.63;14.88;;;18.60;99.90;;;;;;4980416;28;20244;-73
2022/07/24 04:11:32;;;;;;;18.20;13.83;;;18.70;99.90;;;;;;4974846;28;20050;-73
2022/07/24 04:13:58;;;;;;;16.20;13.20;;;18.70;99.90;;;;;;4976242;28;20281;-73
2022/07/24 04:16:24;;;;;;;15.50;13.13;;;18.70;99.90;;;;;;4968705;28;20061;-73
2022/07/24 04:18:50;;;;;;;15.00;12.40;;;18.70;99.90;;;;;;4985280;28;20023;-73
2022/07/24 04:21:16;;;;;;;17.63;13.52;;;18.70;99.90;;;;;;4968398;28;20314;-73
2022/07/24 04:23:42;;;;;;;16.17;12.32;;;18.70;99.90;;;;;;4968159;28;20090;-73
2022/07/24 04:26:08;;;;;;;17.53;13.63;;;18.70;99.90;;;;;;4984533;28;20034;-73
2022/07/24 04:28:34;;;;;;;17.00;13.27;;;18.60;99.90;;;;;;4984097;28;20097;-73
2022/07/24 04:30:59;;;;;;;17.33;13.73;;;18.70;99.90;;;;;;4984447;28;20030;-73
2022/07/24 04:33:25;;;;;;;15.17;12.83;;;18.60;99.90;;;;;;4985118;28;20022;-73
2022/07/24 04:35:51;;;;;;;14.87;12.63;;;18.60;99.90;;;;;;4968331;28;20089;-73
2022/07/24 04:38:17;;;;;;;16.33;13.37;;;18.60;99.90;;;;;;4985189;28;20022;-73
2022/07/24 04:40:42;;;;;;;18.30;13.43;;;18.50;99.90;;;;;;4984255;28;20384;-73
2022/07/24 04:43:08;;;;;;;16.53;12.43;;;18.60;99.90;;;;;;4983684;28;20081;-73
2022/07/24 04:45:34;;;;;;;17.90;13.40;;;18.50;99.90;;;;;;4975585;28;20027;-73
2022/07/24 04:48:00;;;;;;;16.57;13.17;;;18.60;99.90;;;;;;4980533;28;20038;-72
2022/07/24 04:50:25;;;;;;;16.43;12.43;;;18.60;99.90;;;;;;4969647;28;20035;-73
2022/07/24 04:52:51;;;;;;;16.17;12.40;;;18.60;99.90;;;;;;4983331;28;20054;-74
2022/07/24 04:55:17;;;;;;;16.03;12.87;;;18.60;99.90;;;;;;4977391;28;20027;-71
2022/07/24 04:57:43;;;;;;;15.90;11.57;;;18.70;99.90;;;;;;4972704;28;20030;-71
2022/07/24 05:00:11;;;;;;;16.13;12.57;;;18.80;99.90;;;;;;4967005;28;20020;-71
2022/07/24 05:02:36;;;;;;;18.20;13.25;;;18.90;99.90;;;;;;4983712;28;20038;-71
2022/07/24 05:05:02;;;;;;;16.57;13.10;;;18.90;99.90;;;;;;4984698;28;20027;-71
2022/07/24 05:07:28;;;;;;;19.00;13.50;;;19.00;99.90;;;;;;4982675;28;20063;-71
2022/07/24 05:09:54;;;;;;;16.23;13.70;;;19.10;99.90;;;;;;4983448;28;20332;-70
2022/07/24 05:12:19;;;;;;;17.87;12.27;;;19.20;99.90;;;;;;4984637;28;20068;-70
2022/07/24 05:14:45;;;;;;;16.67;12.27;;;19.30;99.90;;;;;;4978485;28;20023;-71
2022/07/24 05:17:11;;;;;;;16.53;13.10;;;19.40;99.90;;;;;;4964394;28;20037;-71
2022/07/24 05:19:37;;;;;;;16.83;13.00;;;19.50;99.90;;;;;;4980340;28;20061;-71
2022/07/24 05:22:02;;;;;;;16.07;12.23;;;19.50;99.90;;;;;;4970763;28;20039;-71
2022/07/24 05:24:29;;;;;;;15.33;12.50;;;19.60;99.90;;;;;;4980783;28;20027;-71
2022/07/24 05:26:54;;;;;;;15.20;13.00;;;19.70;99.90;;;;;;4972957;28;20035;-71
2022/07/24 05:29:20;;;;;;;16.47;13.33;;;19.80;99.90;;;;;;4980277;28;20223;-70
2022/07/24 05:31:46;;;;;;;15.80;12.73;;;19.80;99.90;;;;;;4971868;28;20094;-70
2022/07/24 05:34:12;;;;;;;17.20;12.53;;;19.90;99.90;;;;;;4964602;28;20381;-71
2022/07/24 05:36:37;;;;;;;16.50;12.50;;;19.90;99.90;;;;;;4973606;28;20291;-71
2022/07/24 05:39:04;;;;;;;18.47;13.40;;;19.90;99.90;;;;;;4961533;28;20018;-71
2022/07/24 05:41:29;;;;;;;15.20;12.55;;;20.00;99.90;;;;;;4959287;28;20281;-71
2022/07/24 05:43:55;;;;;;;15.17;13.17;;;20.00;99.90;;;;;;4977785;28;20035;-70
2022/07/24 05:46:21;;;;;;;15.73;12.40;;;19.90;99.90;;;;;;4976188;28;20031;-71
2022/07/24 05:48:47;;;;;;;15.33;12.50;;;20.00;99.90;;;;;;4973810;28;20093;-71
2022/07/24 05:51:12;;;;;;;14.93;12.43;;;20.00;99.90;;;;;;4982892;28;20027;-70
2022/07/24 05:53:39;;;;;;;;;;;20.00;99.90;;;;;;4982866;28;20055;-70
2022/07/24 05:56:05;;;;;;;16.92;13.27;;;20.00;99.90;;;;;;4976090;28;19961;-71
2022/07/24 05:58:31;;;;;;;17.37;13.00;;;20.10;99.90;;;;;;4964676;28;20066;-70
2022/07/24 06:00:57;;;;;;;15.32;12.73;;;20.10;99.90;;;;;;4973223;28;20262;-71
2022/07/24 06:03:23;;;;;;;19.60;13.20;;;20.10;99.90;;;;;;4980020;28;20329;-70
2022/07/24 06:05:49;;;;;;;16.57;14.63;;;20.20;99.90;;;;;;4970191;28;20242;-70
2022/07/24 06:08:14;;;;;;;16.67;13.50;;;20.30;99.90;;;;;;4983490;28;20024;-71
2022/07/24 06:10:40;;;;;;;16.03;13.90;;;20.40;99.90;;;;;;4958556;28;20087;-71
2022/07/24 06:13:06;;;;;;;14.83;12.90;;;20.40;99.90;;;;;;4982312;28;20086;-70
2022/07/24 06:15:32;;;;;;;17.37;13.57;;;20.50;99.90;;;;;;4983849;28;20022;-71
2022/07/24 06:17:57;;;;;;;16.10;13.33;;;20.50;99.90;;;;;;4982505;28;20027;-74
2022/07/24 06:20:23;;;;;;;15.43;12.77;;;20.70;99.90;;;;;;4953562;29;20034;-74
2022/07/24 06:22:49;;;;;;;18.33;13.02;;;20.80;99.90;;;;;;4981506;28;20023;-73
2022/07/24 06:25:16;;;;;;;14.87;12.70;;;20.80;99.90;;;;;;4983235;28;20225;-73
2022/07/24 06:27:49;;;;;;;;;;;20.90;99.90;;;;;;4982966;28;20042;-70
2022/07/24 06:30:23;;;;;;;14.93;12.95;;;20.90;99.90;;;;;;4966246;28;20197;-71
2022/07/24 06:32:49;;;;;;;17.30;13.63;;;20.90;99.90;;;;;;4981786;28;20078;-70
2022/07/24 06:35:15;;;;;;;16.50;13.02;;;21.00;99.90;;;;;;4982388;28;20042;-71
2022/07/24 06:37:40;;;;;;;16.13;14.43;;;21.00;99.90;;;;;;4982262;28;20261;-71
2022/07/24 06:40:07;;;;;;;15.60;13.70;;;21.10;99.90;;;;;;4983494;28;20027;-70
2022/07/24 06:42:33;;;;;;;16.92;13.77;;;21.10;99.90;;;;;;4983010;28;20089;-71
2022/07/24 06:44:58;;;;;;;15.87;13.00;;;21.10;99.90;;;;;;4985871;28;20039;-70
2022/07/24 06:47:25;;;;;;;15.07;13.47;;;21.20;99.90;;;;;;4982533;28;20209;-71
2022/07/24 06:49:55;;;;;;;16.17;13.52;;;21.20;99.90;;;;;;5011494;23;20069;-77
2022/07/24 06:52:21;;;;;;;16.17;13.40;;;21.30;99.90;;;;;;4996038;28;20022;-81
2022/07/24 06:54:47;;;;;;;17.73;14.47;;;21.30;99.90;;;;;;4987105;28;20022;-83
2022/07/24 06:57:13;;;;;;;15.77;14.03;;;21.40;99.90;;;;;;4957310;28;20277;-82
2022/07/24 06:59:39;;;;;;;15.13;13.52;;;21.50;99.90;;;;;;4970555;28;20069;-79
2022/07/24 07:02:05;;;;;;;15.93;13.75;;;21.60;99.90;;;;;;4989441;28;20018;-81
2022/07/24 07:04:31;;;;;;;17.58;14.52;;;21.50;99.90;;;;;;4988232;28;20102;-79
2022/07/24 07:06:57;;;;;;;16.57;13.67;;;21.60;99.90;;;;;;4989882;28;20206;-84
2022/07/24 07:09:23;;;;;;;15.97;13.27;;;21.60;99.90;;;;;;4989617;28;20321;-82
2022/07/24 07:11:48;;;;;;;14.50;12.70;;;21.60;99.90;;;;;;4989784;28;20050;-83
2022/07/24 07:14:14;;;;;;;19.17;14.80;;;21.70;99.90;;;;;;4991373;28;20309;-83
2022/07/24 07:16:40;;;;;;;18.93;14.00;;;21.70;99.90;;;;;;4990209;28;20314;-81
2022/07/24 07:19:06;;;;;;;16.80;14.03;;;21.80;99.90;;;;;;4990562;28;20019;-81
2022/07/24 07:21:31;;;;;;;15.27;13.07;;;21.90;99.90;;;;;;4992126;28;20301;-83
2022/07/24 07:23:57;;;;;;;18.93;14.07;;;21.90;99.90;;;;;;4990830;28;20026;-83
2022/07/24 07:26:23;;;;;;;16.77;14.25;;;22.00;99.90;;;;;;4990777;28;20342;-85
2022/07/24 07:28:49;;;;;;;17.80;13.95;;;22.00;99.90;;;;;;4991191;28;20042;-82
2022/07/24 07:31:15;;;;;;;17.47;14.43;;;22.10;99.90;;;;;;4992407;28;20034;-82
2022/07/24 07:33:40;;;;;;;15.50;13.52;;;22.20;99.90;;;;;;4971153;28;20085;-77
2022/07/24 07:36:08;;;;;;;16.87;14.17;;;22.30;99.90;;;;;;4984948;28;20026;-78
2022/07/24 07:38:35;;;;;;;16.92;13.85;;;22.40;99.90;;;;;;4974576;28;20014;-77
2022/07/24 07:41:01;;;;;;;17.63;14.13;;;22.40;99.90;;;;;;4971056;28;20224;-78
2022/07/24 07:43:26;;;;;;;18.25;13.95;;;22.50;99.90;;;;;;4985091;28;20031;-77
2022/07/24 07:45:52;;;;;;;16.13;13.70;;;22.70;99.90;;;;;;4984078;28;20022;-77
2022/07/24 07:48:18;;;;;;;17.67;13.57;;;22.70;99.90;;;;;;4983287;28;20336;-78
2022/07/24 07:50:44;;;;;;;17.40;13.37;;;22.80;99.90;;;;;;4960183;28;20038;-79
2022/07/24 07:53:10;;;;;;;18.97;12.33;;;22.90;99.90;;;;;;4982184;28;20286;-80
2022/07/24 07:55:36;;;;;;;13.60;12.13;;;23.00;99.90;;;;;;4978168;28;20026;-79
2022/07/24 07:58:02;;;;;;;14.27;12.77;;;23.20;99.90;;;;;;4979205;28;20404;-78
2022/07/24 08:00:27;;;;;;;16.48;13.25;;;23.40;99.90;;;;;;4968430;28;20026;-78
2022/07/24 08:02:53;;;;;;;15.70;13.63;;;23.40;99.90;;;;;;4984585;28;20041;-78
2022/07/24 08:05:19;;;;;;;17.33;13.73;;;23.50;99.90;;;;;;4952545;28;20022;-78
2022/07/24 08:07:45;;;;;;;14.80;12.27;;;23.60;99.90;;;;;;4952297;28;20278;-79
2022/07/24 08:10:11;;;;;;;13.98;11.98;;;23.30;99.90;;;;;;4976042;28;20266;-79
2022/07/24 08:12:37;;;;;;;15.75;12.18;;;23.60;99.90;;;;;;4958895;28;20050;-78
2022/07/24 08:15:03;;;;;;;14.80;12.13;;;23.80;99.90;;;;;;4983234;28;20034;-77
2022/07/24 08:17:29;;;;;;;15.63;12.15;;;23.80;99.90;;;;;;4984574;28;20364;-77
2022/07/24 08:19:55;;;;;;;13.33;11.73;;;23.90;99.90;;;;;;4967529;28;20035;-77
2022/07/24 08:22:21;;;;;;;18.52;12.95;;;24.00;99.90;;;;;;4984566;28;20266;-72
2022/07/24 08:24:46;;;;;;;16.23;12.07;;;24.00;99.90;;;;;;4985183;28;20027;-72
2022/07/24 08:27:12;;;;;;;14.27;11.63;;;24.00;99.90;;;;;;4985654;28;20377;-73
2022/07/24 08:29:38;;;;;;;12.37;10.90;;;24.00;99.90;;;;;;4985338;28;20273;-71
2022/07/24 08:32:04;;;;;;;14.73;11.90;;;24.10;99.90;;;;;;4985187;28;20559;-72
2022/07/24 08:34:30;;;;;;;14.68;11.10;;;24.20;99.90;;;;;;4984896;28;20031;-73
2022/07/24 08:36:55;;;;;;;14.93;11.70;;;24.30;99.90;;;;;;4985006;28;20232;-73
2022/07/24 08:39:21;;;;;;;15.10;10.97;;;24.40;99.90;;;;;;4985338;28;20655;-72
2022/07/24 08:41:47;;;;;;;12.82;10.25;;;24.50;99.90;;;;;;4985037;28;20325;-73
2022/07/24 08:44:13;;;;;;;14.63;10.70;;;24.50;99.90;;;;;;4964815;28;20069;-73
2022/07/24 08:46:40;;;;;;;11.60;10.50;;;24.60;99.90;;;;;;4964476;29;20322;-72
2022/07/24 08:49:14;;;;;;;11.80;10.55;;;24.70;99.90;;;;;;4964134;29;20281;-72
2022/07/24 08:51:41;;;;;;;13.00;11.32;;;24.70;99.90;;;;;;4979275;28;20034;-73
2022/07/24 08:54:08;;;;;;;14.85;11.45;;;24.80;99.90;;;;;;4983665;28;20022;-73
2022/07/24 08:56:36;;;;;;;15.85;11.10;;;24.80;99.90;;;;;;4983753;28;20023;-72
2022/07/24 08:59:02;;;;;;;11.45;10.25;;;24.90;99.90;;;;;;4984803;28;20030;-74
2022/07/24 09:01:28;;;;;;;12.10;10.27;;;24.90;99.90;;;;;;4983213;28;20026;-74
2022/07/24 09:03:53;;;;;;;14.15;11.15;;;24.90;99.90;;;;;;4983264;28;20225;-72
2022/07/24 09:06:19;;;;;;;15.13;10.43;;;25.00;99.90;;;;;;4983621;28;20031;-73
2022/07/24 09:09:02;;;;;;;11.30;9.88;;;25.00;99.60;;;;;;4983116;28;20022;-75
2022/07/24 09:11:29;;;;;;;11.13;9.68;;;25.10;99.40;;;;;;4983585;28;20033;-73
2022/07/24 09:16:47;;;;;;;13.40;10.20;;;25.20;96.60;;;;;;4977054;28;20030;-71
2022/07/24 09:19:13;;;;;;;12.40;9.43;;;25.30;97.60;;;;;;4983385;28;20046;-71
2022/07/24 09:21:40;;;;;;;11.00;7.80;;;25.30;96.10;;;;;;4981757;28;20029;-71
2022/07/24 09:24:13;;;;;;;9.60;8.50;;;25.40;92.30;;;;;;4980488;28;20022;-71
2022/07/24 09:26:55;;;;;;;10.63;8.30;;;25.50;91.50;;;;;;4982647;28;20022;-73
2022/07/24 09:29:23;;;;;;;9.15;8.00;;;25.50;93.30;;;;;;4979599;28;20027;-73
2022/07/24 09:32:00;;;;;;;13.20;8.80;;;25.50;91.90;;;;;;4983287;28;20045;-73
2022/07/24 09:34:29;;;;;;;9.18;7.32;;;25.60;92.30;;;;;;4980771;28;20034;-72
2022/07/24 09:37:00;;;;;;;9.30;7.78;;;25.60;89.00;;;;;;4982868;28;20301;-74
2022/07/24 09:39:27;;;;;;;10.98;8.18;;;25.60;90.00;;;;;;4984237;28;20045;-73
2022/07/24 09:41:54;;;;;;;8.45;7.45;;;25.70;91.20;;;;;;4981854;28;20022;-73
2022/07/24 09:44:20;;;;;;;10.55;8.15;;;25.70;85.10;;;;;;4983814;28;20023;-73
2022/07/24 09:47:10;;;;;;;9.13;6.93;;;25.80;85.40;;;;;;4983858;28;20490;-73
2022/07/24 09:49:37;;;;;;;9.38;7.78;;;25.80;83.00;;;;;;4982646;28;20085;-73
2022/07/24 09:52:14;;;;;;;12.02;7.55;;;25.90;81.70;;;;;;4979727;28;20022;-78
2022/07/24 09:54:42;;;;;;;10.48;8.52;;;25.90;85.50;;;;;;4966756;28;20027;-78
2022/07/24 09:57:26;;;;;;;11.10;7.38;;;25.90;82.00;;;;;;4966668;28;20295;-80
2022/07/24 10:00:05;;;;;;;9.68;7.65;;;26.00;80.90;;;;;;4968101;28;20022;-79
2022/07/24 10:02:32;;;;;;;10.13;8.20;;;26.00;83.70;;;;;;4998388;28;20022;-78
2022/07/24 10:05:01;;;;;;;8.82;7.43;;;26.10;82.40;;;;;;4966514;28;20034;-78
2022/07/24 10:07:28;;;;;;;10.35;8.23;;;26.10;81.20;;;;;;4966725;28;20130;-79
2022/07/24 10:09:55;;;;;;;;;;;26.10;83.20;;;;;;4966662;28;20103;-78
2022/07/24 10:12:29;;;;;;;12.27;8.35;;;26.20;82.60;;;;;;4982571;28;19906;-78
2022/07/24 10:14:59;;;;;;;11.02;8.45;;;26.30;81.40;;;;;;4950659;28;20031;-78
2022/07/24 10:18:24;;;;;;;12.55;8.38;;;26.40;83.10;;;;;;4981797;28;20022;-78
2022/07/24 10:20:50;;;;;;;8.43;7.57;;;26.60;79.70;;;;;;4924025;29;20275;-80
2022/07/24 10:23:27;;;;;;;13.60;8.00;;;26.80;77.70;;;;;;4940997;28;20069;-78
2022/07/24 10:25:55;;;;;;;9.10;7.88;;;27.00;78.30;;;;;;4972486;28;20034;-79
2022/07/24 10:28:41;;;;;;;9.57;7.90;;;27.10;80.20;;;;;;4979375;28;20090;-79
2022/07/24 10:31:09;;;;;;;10.40;7.78;;;27.30;75.60;;;;;;4979838;28;20023;-78
2022/07/24 10:33:37;;;;;;;9.07;7.63;;;27.40;73.20;;;;;;4980362;28;20039;-78
2022/07/24 10:36:15;;;;;;;11.95;7.63;;;27.50;71.50;;;;;;4965444;28;20066;-77
2022/07/24 10:38:45;;;;;;;9.10;7.60;;;27.60;69.50;;;;;;4965985;28;20064;-77
2022/07/24 10:41:21;;;;;;;8.23;6.97;;;27.60;69.40;;;;;;4979874;28;20087;-77
2022/07/24 10:44:19;;;;;;;9.15;7.70;;;27.70;68.20;;;;;;4939936;28;20023;-77
2022/07/24 10:47:00;;;;;;;8.65;7.10;;;27.80;68.80;;;;;;4975599;28;20030;-77
2022/07/24 10:49:49;;;;;;;8.80;7.05;;;28.00;69.10;;;;;;4982181;28;20244;-77
2022/07/24 10:52:28;;;;;;;8.93;6.88;;;28.20;71.10;;;;;;4979130;28;20026;-77
2022/07/24 10:55:29;;;;;;;10.77;7.45;;;28.30;71.90;;;;;;4965959;28;20034;-78
2022/07/24 10:58:04;;;;;;;11.18;7.75;;;28.40;67.80;;;;;;4981623;28;20023;-78
2022/07/24 11:00:34;;;;;;;8.30;7.15;;;28.60;67.80;;;;;;4982729;28;20074;-77
2022/07/24 11:03:05;;;;;;;8.35;7.25;;;28.60;66.80;;;;;;4962897;28;20019;-77
2022/07/24 11:05:38;;;;;;;9.30;7.07;;;28.70;67.10;;;;;;4975251;28;20030;-77
2022/07/24 11:08:30;;;;;;;9.63;7.38;;;28.80;65.70;;;;;;4953927;28;20033;-77
2022/07/24 11:11:00;;;;;;;9.15;8.25;;;28.90;63.90;;;;;;4977395;28;20034;-77
2022/07/24 11:13:38;;;;;;;9.60;7.95;;;29.00;63.60;;;;;;4981864;28;20143;-77
2022/07/24 11:16:10;;;;;;;8.40;7.50;;;29.10;63.70;;;;;;4974749;28;20090;-77
2022/07/24 11:18:59;;;;;;;7.82;6.93;;;29.20;66.20;;;;;;4963966;28;20023;-77
2022/07/24 11:21:36;;;;;;;8.75;7.90;;;29.20;66.80;;;;;;4958498;28;20047;-77
2022/07/24 11:24:17;;;;;;;12.30;7.82;;;29.20;64.80;;;;;;4967770;28;20345;-77
2022/07/24 11:26:56;;;;;;;10.48;9.05;;;29.30;64.10;;;;;;4968857;28;20030;-77
2022/07/24 11:29:38;;;;;;;9.23;7.75;;;29.40;64.40;;;;;;4983610;28;20026;-77
2022/07/24 11:32:14;;;;;;;9.07;8.05;;;29.50;64.30;;;;;;4961250;28;20329;-75
2022/07/24 11:34:46;;;;;;;8.32;7.43;;;29.60;65.00;;;;;;4985439;28;20215;-75
2022/07/24 11:37:11;;;;;;;8.38;7.55;;;29.70;65.60;;;;;;4984708;28;20347;-75
2022/07/24 11:39:39;;;;;;;9.68;7.22;;;29.70;65.70;;;;;;4985527;28;20023;-77
2022/07/24 11:42:16;;;;;;;9.50;8.18;;;29.70;63.80;;;;;;4943351;29;20077;-77
2022/07/24 11:44:47;;;;;;;8.65;7.47;;;29.60;62.10;;;;;;4951375;29;20034;-77
2022/07/24 11:47:24;;;;;;;10.73;8.27;;;29.80;62.70;;;;;;4966844;28;20051;-72
2022/07/24 11:49:59;;;;;;;8.13;7.30;;;29.80;60.20;;;;;;4979133;28;20105;-72
2022/07/24 11:52:34;;;;;;;10.38;7.97;;;30.00;63.10;;;;;;4983642;28;20070;-76
2022/07/24 11:55:08;;;;;;;7.70;6.95;;;30.10;66.60;;;;;;4976721;28;20023;-78
2022/07/24 11:57:36;;;;;;;8.55;7.75;;;30.20;60.40;;;;;;4962364;28;20154;-76
2022/07/24 12:00:03;;;;;;;7.97;7.18;;;30.20;60.50;;;;;;4976406;28;20015;-77
2022/07/24 12:02:29;;;;;;;11.48;7.32;;;30.40;61.40;;;;;;4956862;28;20078;-77
2022/07/24 12:04:55;;;;;;;10.50;7.88;;;30.50;59.60;;;;;;4985195;28;20031;-77
2022/07/24 12:07:25;;;;;;;9.43;7.43;;;30.60;61.50;;;;;;4983069;28;20206;-77
2022/07/24 12:09:58;;;;;;;10.52;8.20;;;30.80;62.10;;;;;;4961925;28;20038;-78
2022/07/24 12:12:34;;;;;;;9.98;7.72;;;31.00;64.40;;;;;;4971980;28;20022;-78
2022/07/24 12:15:04;;;;;;;9.25;7.53;;;31.00;65.20;;;;;;4984309;28;20037;-77
2022/07/24 12:17:31;;;;;;;10.43;8.02;;;31.00;63.90;;;;;;4980221;28;20034;-77
2022/07/24 12:19:58;;;;;;;10.48;9.43;;;31.00;63.20;;;;;;4946762;28;20029;-79
2022/07/24 12:22:25;;;;;;;14.73;11.38;;;30.90;62.00;;;;;;4966369;29;20070;-78
2022/07/24 12:24:52;;;;;;;10.98;9.88;;;31.00;62.30;;;;;;4982023;28;20249;-78
2022/07/24 12:27:41;;;;;;;9.00;8.10;;;31.20;63.40;;;;;;4972770;28;20094;-79
2022/07/24 12:30:28;;;;;;;8.98;8.07;;;31.40;62.80;;;;;;4976310;28;20246;-78
2022/07/24 12:33:00;;;;;;;8.27;7.45;;;31.40;57.60;;;;;;4975466;28;20214;-78
2022/07/24 12:35:27;;;;;;;9.48;7.80;;;31.50;59.70;;;;;;4977148;28;20031;-78
2022/07/24 12:37:53;;;;;;;9.23;8.32;;;31.60;61.30;;;;;;4982577;28;20119;-78
2022/07/24 12:40:23;;;;;;;11.43;7.90;;;31.80;60.70;;;;;;4964795;28;20050;-79
2022/07/24 12:43:00;;;;;;;9.57;7.85;;;31.90;57.30;;;;;;4978393;28;20262;-78